createdAt,value
2018-12-06T00:01:25.379Z,10.77
2018-12-06T00:03:53.909Z,10.67
2018-12-06T00:06:22.409Z,11.17
2018-12-06T00:08:50.895Z,10.53
2018-12-06T00:11:19.382Z,10.33
2018-12-06T00:13:48.037Z,11.70
2018-12-06T00:16:16.753Z,11.47
2018-12-06T00:18:53.950Z,10.93
2018-12-06T00:21:22.689Z,11.97
2018-12-06T00:23:51.191Z,12.13
2018-12-06T00:26:19.865Z,10.83
2018-12-06T00:28:48.374Z,12.03
2018-12-06T00:31:17.190Z,11.30
2018-12-06T00:33:45.684Z,12.00
2018-12-06T00:36:14.185Z,11.43
2018-12-06T00:38:42.670Z,12.53
2018-12-06T00:41:11.175Z,12.63
2018-12-06T00:43:39.650Z,13.10
2018-12-06T00:46:08.306Z,12.90
2018-12-06T00:48:36.778Z,12.23
2018-12-06T00:51:05.743Z,13.10
2018-12-06T00:53:34.238Z,13.20
2018-12-06T00:56:02.833Z,14.00
2018-12-06T00:58:31.434Z,13.90
2018-12-06T01:01:00.062Z,14.30
2018-12-06T01:03:28.619Z,13.07
2018-12-06T01:05:57.238Z,13.67
2018-12-06T01:08:25.749Z,14.33
2018-12-06T01:10:54.316Z,14.37
2018-12-06T01:13:22.837Z,13.97
2018-12-06T01:15:51.385Z,14.03
2018-12-06T01:18:19.899Z,13.83
2018-12-06T01:20:48.681Z,14.43
2018-12-06T01:23:17.181Z,14.53
2018-12-06T01:25:46.037Z,14.63
2018-12-06T01:28:14.555Z,14.37
2018-12-06T01:30:43.073Z,14.90
2018-12-06T01:33:11.746Z,14.87
2018-12-06T01:35:40.325Z,14.33
2018-12-06T01:38:08.820Z,15.13
2018-12-06T01:40:37.324Z,15.43
2018-12-06T01:43:05.860Z,16.40
2018-12-06T01:45:34.398Z,15.57
2018-12-06T01:48:02.918Z,14.97
2018-12-06T01:50:31.418Z,15.53
2018-12-06T01:53:00.124Z,14.77
2018-12-06T01:55:28.677Z,14.83
2018-12-06T01:57:57.336Z,17.03
2018-12-06T02:00:26.144Z,15.20
2018-12-06T02:02:55.197Z,14.90
2018-12-06T02:05:23.754Z,15.90
2018-12-06T02:07:52.254Z,15.80
2018-12-06T02:10:20.745Z,15.33
2018-12-06T02:12:49.256Z,15.20
2018-12-06T02:15:17.788Z,15.63
2018-12-06T02:17:46.315Z,15.53
2018-12-06T02:20:14.826Z,16.60
2018-12-06T02:22:43.577Z,15.83
2018-12-06T02:25:12.108Z,15.77
2018-12-06T02:27:40.580Z,15.93
2018-12-06T02:30:09.341Z,16.30
2018-12-06T02:32:37.824Z,15.87
2018-12-06T02:35:06.471Z,16.53
2018-12-06T02:37:35.160Z,15.37
2018-12-06T02:40:04.177Z,16.53
2018-12-06T02:42:32.669Z,17.33
2018-12-06T02:45:01.231Z,16.67
2018-12-06T02:47:29.714Z,16.63
2018-12-06T02:49:58.283Z,15.87
2018-12-06T02:52:27.204Z,17.07
2018-12-06T02:54:56.256Z,17.07
2018-12-06T02:57:24.881Z,16.37
2018-12-06T02:59:53.595Z,16.30
2018-12-06T03:02:22.108Z,15.47
2018-12-06T03:04:50.638Z,17.23
2018-12-06T03:07:19.196Z,16.63
2018-12-06T03:09:47.719Z,17.97
2018-12-06T03:12:16.246Z,17.60
2018-12-06T03:14:44.772Z,17.33
2018-12-06T03:17:13.557Z,17.87
2018-12-06T03:19:42.163Z,17.03
2018-12-06T03:22:10.817Z,18.50
2018-12-06T03:24:39.321Z,18.10
2018-12-06T03:27:07.816Z,18.10
2018-12-06T03:29:36.324Z,19.03
2018-12-06T03:32:04.869Z,17.83
2018-12-06T03:34:33.370Z,17.30
2018-12-06T03:37:02.013Z,18.50
2018-12-06T03:39:30.608Z,19.10
2018-12-06T03:41:59.306Z,19.00
2018-12-06T03:44:27.803Z,18.70
2018-12-06T03:46:56.322Z,18.93
2018-12-06T03:49:24.835Z,19.03
2018-12-06T03:51:53.437Z,18.47
2018-12-06T03:54:21.936Z,19.23
2018-12-06T03:56:50.720Z,18.90
2018-12-06T03:59:19.214Z,18.27
2018-12-06T04:01:47.691Z,18.17
2018-12-06T04:04:16.185Z,19.00
2018-12-06T04:06:44.655Z,18.97
2018-12-06T04:09:13.169Z,19.07
2018-12-06T04:11:41.699Z,19.27
2018-12-06T04:14:10.180Z,19.80
2018-12-06T04:16:38.674Z,20.03
2018-12-06T04:19:07.272Z,19.73
2018-12-06T04:21:35.875Z,19.43
2018-12-06T04:24:04.393Z,19.23
2018-12-06T04:26:32.890Z,19.90
2018-12-06T04:29:01.398Z,20.70
2018-12-06T04:31:37.935Z,20.60
2018-12-06T04:34:06.462Z,20.17
2018-12-06T04:36:34.947Z,20.37
2018-12-06T04:39:05.605Z,20.30
2018-12-06T04:41:34.289Z,19.73
2018-12-06T04:44:03.097Z,20.17
2018-12-06T04:46:31.797Z,19.63
2018-12-06T04:49:00.333Z,20.67
2018-12-06T04:51:28.898Z,20.67
2018-12-06T04:53:57.362Z,20.60
2018-12-06T04:56:25.904Z,21.57
2018-12-06T04:58:54.429Z,21.10
2018-12-06T05:01:22.928Z,21.60
2018-12-06T05:03:52.052Z,21.10
2018-12-06T05:06:20.913Z,21.00
2018-12-06T05:08:49.393Z,21.60
2018-12-06T05:11:17.917Z,21.43
2018-12-06T05:13:46.407Z,21.23
2018-12-06T05:16:14.921Z,21.77
2018-12-06T05:18:43.452Z,21.67
2018-12-06T05:21:11.957Z,22.17
2018-12-06T05:23:40.517Z,21.27
2018-12-06T05:26:09.023Z,23.40
2018-12-06T05:28:37.552Z,23.10
2018-12-06T05:31:06.089Z,21.83
2018-12-06T05:33:34.660Z,23.43
2018-12-06T05:36:03.288Z,24.77
2018-12-06T05:38:31.942Z,22.73
2018-12-06T05:41:00.506Z,23.50
2018-12-06T05:43:29.003Z,23.77
2018-12-06T05:45:57.668Z,23.90
2018-12-06T05:48:26.173Z,24.50
2018-12-06T05:50:54.823Z,24.73
2018-12-06T05:53:23.409Z,25.03
2018-12-06T05:55:52.012Z,26.50
2018-12-06T05:58:20.504Z,27.23
2018-12-06T06:00:49.044Z,26.13
2018-12-06T06:03:17.581Z,27.93
2018-12-06T06:05:46.090Z,27.07
2018-12-06T06:08:14.652Z,26.00
2018-12-06T06:10:43.281Z,27.33
2018-12-06T06:13:11.967Z,28.43
2018-12-06T06:15:40.650Z,27.20
2018-12-06T06:18:09.230Z,27.70
2018-12-06T06:20:37.746Z,28.17
2018-12-06T06:23:06.231Z,27.97
2018-12-06T06:25:34.845Z,27.83
2018-12-06T06:28:03.396Z,28.33
2018-12-06T06:30:31.903Z,29.50
2018-12-06T06:33:00.527Z,27.33
2018-12-06T06:35:29.035Z,28.50
2018-12-06T06:37:57.557Z,28.30
2018-12-06T06:40:26.037Z,28.83
2018-12-06T06:42:54.538Z,29.13
2018-12-06T06:45:23.061Z,28.53
2018-12-06T06:47:51.737Z,28.50
2018-12-06T06:50:20.415Z,29.60
2018-12-06T06:52:50.404Z,30.00
2018-12-06T06:55:19.250Z,28.67
2018-12-06T06:57:47.794Z,27.73
2018-12-06T07:00:16.557Z,30.33
2018-12-06T07:02:45.042Z,31.13
2018-12-06T07:05:13.546Z,31.80
2018-12-06T07:07:42.240Z,30.13
2018-12-06T07:10:11.015Z,31.67
2018-12-06T07:12:39.525Z,31.17
2018-12-06T07:15:08.167Z,32.20
2018-12-06T07:17:36.671Z,32.47
2018-12-06T07:20:05.988Z,30.90
2018-12-06T07:22:34.491Z,31.80
2018-12-06T07:25:03.131Z,31.90
2018-12-06T07:27:31.621Z,32.70
2018-12-06T07:30:00.335Z,32.67
2018-12-06T07:32:29.013Z,31.73
2018-12-06T07:34:57.513Z,31.63
2018-12-06T07:37:26.092Z,32.97
2018-12-06T07:39:54.760Z,31.93
2018-12-06T07:42:23.908Z,32.63
2018-12-06T07:44:52.421Z,33.07
2018-12-06T07:47:21.055Z,34.27
2018-12-06T07:49:49.554Z,31.93
2018-12-06T07:52:18.018Z,34.33
2018-12-06T07:54:46.539Z,33.60
2018-12-06T07:57:15.096Z,34.17
2018-12-06T07:59:43.604Z,34.87
2018-12-06T08:02:12.304Z,34.13
2018-12-06T08:04:40.870Z,34.17
2018-12-06T08:07:09.491Z,34.97
2018-12-06T08:09:38.049Z,35.50
2018-12-06T08:12:06.705Z,34.30
2018-12-06T08:14:35.243Z,33.10
2018-12-06T08:17:03.764Z,33.37
2018-12-06T08:19:38.745Z,35.33
2018-12-06T08:22:07.313Z,35.03
2018-12-06T08:24:35.791Z,34.70
2018-12-06T08:27:04.337Z,32.83
2018-12-06T08:29:32.853Z,33.30
2018-12-06T08:32:01.365Z,33.77
2018-12-06T08:34:29.918Z,35.03
2018-12-06T08:36:58.444Z,34.83
2018-12-06T08:39:26.982Z,34.30
2018-12-06T08:41:55.542Z,34.80
2018-12-06T08:44:24.112Z,36.03
2018-12-06T08:46:52.947Z,35.30
2018-12-06T08:49:21.484Z,35.40
2018-12-06T08:51:50.018Z,35.53
2018-12-06T08:54:18.566Z,35.27
2018-12-06T08:56:47.118Z,36.27
2018-12-06T08:59:15.632Z,36.63
2018-12-06T09:01:44.413Z,37.30
2018-12-06T09:04:13.112Z,38.00
2018-12-06T09:06:41.595Z,37.87
2018-12-06T09:09:10.220Z,36.80
2018-12-06T09:11:38.753Z,38.33
2018-12-06T09:14:07.239Z,37.37
2018-12-06T09:16:35.797Z,36.47
2018-12-06T09:19:04.517Z,38.73
2018-12-06T09:21:33.209Z,37.77
2018-12-06T09:24:01.927Z,36.17
2018-12-06T09:26:30.473Z,37.40
2018-12-06T09:28:58.984Z,39.37
2018-12-06T09:31:27.475Z,38.33
2018-12-06T09:34:04.409Z,39.60
2018-12-06T09:36:33.043Z,37.20
2018-12-06T09:39:01.712Z,38.40
2018-12-06T09:41:30.328Z,38.47
2018-12-06T09:43:59.030Z,37.77
2018-12-06T09:46:29.610Z,38.10
2018-12-06T09:48:58.150Z,38.87
2018-12-06T09:51:26.687Z,39.20
2018-12-06T09:53:55.206Z,38.57
2018-12-06T09:56:23.728Z,39.30
2018-12-06T09:58:52.286Z,38.80
2018-12-06T10:01:20.792Z,39.03
2018-12-06T10:03:49.297Z,39.60
2018-12-06T10:06:18.139Z,40.07
2018-12-06T10:08:46.705Z,40.13
2018-12-06T10:11:15.315Z,39.50
2018-12-06T10:13:43.840Z,37.87
2018-12-06T10:16:12.436Z,41.47
2018-12-06T10:18:41.221Z,39.93
2018-12-06T10:21:09.738Z,38.00
2018-12-06T10:23:39.356Z,39.33
2018-12-06T10:26:08.181Z,39.77
2018-12-06T10:28:36.834Z,38.83
2018-12-06T10:31:05.356Z,39.30
2018-12-06T10:33:33.920Z,37.50
2018-12-06T10:36:02.480Z,38.97
2018-12-06T10:38:31.258Z,38.03
2018-12-06T10:40:59.867Z,37.47
2018-12-06T10:43:28.424Z,38.87
2018-12-06T10:45:56.938Z,38.07
2018-12-06T10:48:25.450Z,39.30
2018-12-06T10:51:03.975Z,39.73
2018-12-06T10:53:32.541Z,38.80
2018-12-06T10:56:01.149Z,39.73
2018-12-06T10:58:29.671Z,39.83
2018-12-06T11:01:03.653Z,37.90
2018-12-06T11:03:34.189Z,39.30
2018-12-06T11:06:03.172Z,37.73
2018-12-06T11:08:31.690Z,40.23
2018-12-06T11:11:01.596Z,39.17
2018-12-06T11:13:30.186Z,39.27
2018-12-06T11:15:59.037Z,39.47
2018-12-06T11:18:27.546Z,39.17
2018-12-06T11:20:56.090Z,38.77
2018-12-06T11:23:24.607Z,38.43
2018-12-06T11:25:53.263Z,40.17
2018-12-06T11:28:21.968Z,39.83
2018-12-06T11:30:50.637Z,39.97
2018-12-06T11:33:19.195Z,39.17
2018-12-06T11:35:47.816Z,40.33
2018-12-06T11:38:16.331Z,39.10
2018-12-06T11:40:44.999Z,38.47
2018-12-06T11:43:13.520Z,40.53
2018-12-06T11:45:42.053Z,39.37
2018-12-06T11:48:10.633Z,37.30
2018-12-06T11:50:39.196Z,40.27
2018-12-06T11:53:07.800Z,38.60
2018-12-06T11:55:36.334Z,38.73
2018-12-06T11:58:11.309Z,39.10
2018-12-06T12:00:35.551Z,38.60
2018-12-06T12:03:04.096Z,38.23
2018-12-06T12:05:32.754Z,35.43
2018-12-06T12:08:01.553Z,35.80
2018-12-06T12:10:30.066Z,34.17
2018-12-06T12:12:58.595Z,34.13
2018-12-06T12:15:27.408Z,32.40
2018-12-06T12:17:55.991Z,31.13
2018-12-06T12:20:24.513Z,31.73
2018-12-06T12:22:53.060Z,31.97
2018-12-06T12:25:21.929Z,30.63
2018-12-06T12:27:50.463Z,29.97
2018-12-06T12:30:18.946Z,29.97
2018-12-06T12:32:47.465Z,30.10
2018-12-06T12:35:15.969Z,29.90
2018-12-06T12:37:44.488Z,31.67
2018-12-06T12:40:13.065Z,31.53
2018-12-06T12:42:41.602Z,29.93
2018-12-06T12:45:10.502Z,30.67
2018-12-06T12:47:39.018Z,28.70
2018-12-06T12:50:09.130Z,29.23
2018-12-06T12:52:37.700Z,29.43
2018-12-06T12:55:06.591Z,28.90
2018-12-06T12:57:35.114Z,29.43
2018-12-06T13:00:04.503Z,27.73
2018-12-06T13:02:33.142Z,28.17
2018-12-06T13:05:01.693Z,25.97
2018-12-06T13:07:30.219Z,24.70
2018-12-06T13:09:58.787Z,26.40
2018-12-06T13:12:27.459Z,25.50
2018-12-06T13:14:56.219Z,25.60
2018-12-06T13:17:25.610Z,24.77
2018-12-06T13:19:54.419Z,23.90
2018-12-06T13:22:23.511Z,24.00
2018-12-06T13:24:52.035Z,22.83
2018-12-06T13:27:20.542Z,22.13
2018-12-06T13:29:49.066Z,22.17
2018-12-06T13:32:17.595Z,20.50
2018-12-06T13:34:47.184Z,21.67
2018-12-06T13:37:16.905Z,20.40
2018-12-06T13:39:46.224Z,21.87
2018-12-06T13:42:23.218Z,21.53
2018-12-06T13:44:46.420Z,19.30
2018-12-06T13:47:15.980Z,19.97
2018-12-06T13:49:44.662Z,18.83
2018-12-06T13:52:13.266Z,20.00
2018-12-06T13:54:42.048Z,19.47
2018-12-06T13:57:11.774Z,20.23
2018-12-06T13:59:40.294Z,18.80
2018-12-06T14:02:09.318Z,19.70
2018-12-06T14:04:37.859Z,19.70
2018-12-06T14:07:06.395Z,19.87
2018-12-06T14:09:35.121Z,20.63
2018-12-06T14:12:10.254Z,19.90
2018-12-06T14:15:29.317Z,20.80
2018-12-06T14:17:57.847Z,20.27
2018-12-06T14:20:26.363Z,20.60
2018-12-06T14:22:54.925Z,21.03
2018-12-06T14:25:23.448Z,20.70
2018-12-06T14:27:51.964Z,21.37
2018-12-06T14:30:20.486Z,21.67
2018-12-06T14:32:49.058Z,22.07
2018-12-06T14:35:17.636Z,22.37
2018-12-06T14:37:46.178Z,22.30
2018-12-06T14:40:14.858Z,21.97
2018-12-06T14:42:43.385Z,22.03
2018-12-06T14:45:12.731Z,22.63
2018-12-06T14:47:41.234Z,22.83
2018-12-06T14:50:09.752Z,24.07
2018-12-06T14:52:38.347Z,23.87
2018-12-06T14:55:07.013Z,22.73
2018-12-06T14:57:35.576Z,23.20
2018-12-06T15:00:05.741Z,22.97
2018-12-06T15:02:34.281Z,22.23
2018-12-06T15:05:02.807Z,22.63
2018-12-06T15:07:31.338Z,21.67
2018-12-06T15:09:59.900Z,20.83
2018-12-06T15:12:28.658Z,20.37
2018-12-06T15:14:57.204Z,20.40
2018-12-06T15:17:25.748Z,20.87
2018-12-06T15:19:54.285Z,19.97
2018-12-06T15:22:22.802Z,19.73
2018-12-06T15:24:51.610Z,19.37
2018-12-06T15:27:20.596Z,19.90
2018-12-06T15:29:49.423Z,19.53
2018-12-06T15:32:17.939Z,21.03
2018-12-06T15:34:46.465Z,20.13
2018-12-06T15:37:14.973Z,19.97
2018-12-06T15:39:43.491Z,20.90
2018-12-06T15:42:12.047Z,20.40
2018-12-06T15:44:40.560Z,20.43
2018-12-06T15:47:09.067Z,20.30
2018-12-06T15:49:37.573Z,20.43
2018-12-06T15:52:06.087Z,20.33
2018-12-06T15:54:34.625Z,20.37
2018-12-06T15:57:03.159Z,20.63
2018-12-06T15:59:31.673Z,19.70
2018-12-06T16:02:00.193Z,20.63
2018-12-06T16:04:28.947Z,18.40
2018-12-06T16:06:57.678Z,20.37
2018-12-06T16:09:26.245Z,20.77
2018-12-06T16:11:54.785Z,21.33
2018-12-06T16:14:23.444Z,21.33
2018-12-06T16:16:51.982Z,21.37
2018-12-06T16:19:20.532Z,21.00
2018-12-06T16:21:49.068Z,22.63
2018-12-06T16:24:17.599Z,21.57
2018-12-06T16:26:46.129Z,23.03
2018-12-06T16:29:14.663Z,21.43
2018-12-06T16:31:43.285Z,24.60
2018-12-06T16:34:12.112Z,23.20
2018-12-06T16:36:40.670Z,23.43
2018-12-06T16:39:09.301Z,23.13
2018-12-06T16:41:38.023Z,23.00
2018-12-06T16:44:06.711Z,24.33
2018-12-06T16:46:35.236Z,23.63
2018-12-06T16:49:10.059Z,23.50
2018-12-06T16:51:34.453Z,23.80
2018-12-06T16:54:03.327Z,23.80
2018-12-06T16:56:31.875Z,23.43
2018-12-06T16:59:00.491Z,25.10
2018-12-06T17:01:29.659Z,24.07
2018-12-06T17:03:58.195Z,24.07
2018-12-06T17:06:26.717Z,25.53
2018-12-06T17:08:55.249Z,25.63
2018-12-06T17:11:23.762Z,24.17
2018-12-06T17:13:52.338Z,24.40
2018-12-06T17:16:20.872Z,24.67
2018-12-06T17:18:49.406Z,25.67
2018-12-06T17:21:17.951Z,24.77
2018-12-06T17:23:46.548Z,25.77
2018-12-06T17:26:15.125Z,24.63
2018-12-06T17:28:43.630Z,25.23
2018-12-06T17:31:12.174Z,26.37
2018-12-06T17:33:40.715Z,24.67
2018-12-06T17:36:09.229Z,24.57
2018-12-06T17:38:37.753Z,23.33
2018-12-06T17:41:06.307Z,23.10
2018-12-06T17:43:34.849Z,22.73
2018-12-06T17:46:03.447Z,23.63
2018-12-06T17:48:32.091Z,22.83
2018-12-06T17:51:00.633Z,23.07
2018-12-06T17:53:29.198Z,22.77
2018-12-06T17:55:57.872Z,21.93
2018-12-06T17:58:26.382Z,22.50
2018-12-06T18:00:54.943Z,23.67
2018-12-06T18:03:23.490Z,23.37
2018-12-06T18:05:52.040Z,23.80
2018-12-06T18:08:20.609Z,22.90
2018-12-06T18:10:49.270Z,23.53
2018-12-06T18:13:17.794Z,23.23
2018-12-06T18:15:46.901Z,22.60
2018-12-06T18:18:15.434Z,22.90
2018-12-06T18:20:43.979Z,24.53
2018-12-06T18:23:12.535Z,23.93
2018-12-06T18:25:41.080Z,24.27
2018-12-06T18:28:09.637Z,25.27
2018-12-06T18:30:38.295Z,23.67
2018-12-06T18:33:06.793Z,24.53
2018-12-06T18:35:35.349Z,24.27
2018-12-06T18:38:03.879Z,25.23
2018-12-06T18:40:32.427Z,25.50
2018-12-06T18:43:00.955Z,25.20
2018-12-06T18:45:29.470Z,25.23
2018-12-06T18:47:58.069Z,26.60
2018-12-06T18:50:26.616Z,26.70
2018-12-06T18:52:55.167Z,26.67
2018-12-06T18:55:23.706Z,25.03
2018-12-06T18:57:52.237Z,24.67
2018-12-06T19:00:20.850Z,24.70
2018-12-06T19:02:49.424Z,25.50
2018-12-06T19:05:18.003Z,24.37
2018-12-06T19:07:46.558Z,25.80
2018-12-06T19:10:15.702Z,23.27
2018-12-06T19:12:44.248Z,23.70
2018-12-06T19:15:13.006Z,25.03
2018-12-06T19:17:41.586Z,23.83
2018-12-06T19:20:10.157Z,24.10
2018-12-06T19:22:39.188Z,24.53
2018-12-06T19:25:07.987Z,23.20
2018-12-06T19:27:36.545Z,24.03
2018-12-06T19:30:06.945Z,24.33
2018-12-06T19:32:35.761Z,24.20
2018-12-06T19:35:05.070Z,24.83
2018-12-06T19:37:34.055Z,22.63
2018-12-06T19:40:02.788Z,25.90
2018-12-06T19:42:38.450Z,25.77
2018-12-06T19:45:02.265Z,27.20
2018-12-06T19:47:30.821Z,26.40
2018-12-06T19:49:59.478Z,26.23
2018-12-06T19:52:28.192Z,26.40
2018-12-06T19:54:57.029Z,26.17
2018-12-06T19:57:25.676Z,27.33
2018-12-06T19:59:54.213Z,28.17
2018-12-06T20:02:22.779Z,28.07
2018-12-06T20:04:51.652Z,26.87
2018-12-06T20:07:20.208Z,28.43
2018-12-06T20:09:48.727Z,27.63
2018-12-06T20:12:17.309Z,26.33
2018-12-06T20:14:45.859Z,26.67
2018-12-06T20:17:14.639Z,26.50
2018-12-06T20:19:43.177Z,25.87
2018-12-06T20:22:11.827Z,27.03
2018-12-06T20:24:40.384Z,26.33
2018-12-06T20:27:08.919Z,27.83
2018-12-06T20:29:37.666Z,27.03
2018-12-06T20:32:06.210Z,27.00
2018-12-06T20:34:34.776Z,27.00
2018-12-06T20:37:03.333Z,27.13
2018-12-06T20:39:31.905Z,27.17
2018-12-06T20:42:00.470Z,27.30
2018-12-06T20:44:29.055Z,28.57
2018-12-06T20:46:57.792Z,27.10
2018-12-06T20:49:26.419Z,27.53
2018-12-06T20:51:55.024Z,27.07
2018-12-06T20:54:23.996Z,28.47
2018-12-06T20:56:52.523Z,28.67
2018-12-06T20:59:21.252Z,28.87
2018-12-06T21:01:49.841Z,29.30
2018-12-06T21:04:18.453Z,29.07
2018-12-06T21:06:47.315Z,29.63
2018-12-06T21:09:15.911Z,30.17
2018-12-06T21:11:44.463Z,29.00
2018-12-06T21:14:13.337Z,30.63
2018-12-06T21:16:41.923Z,30.63
2018-12-06T21:19:10.461Z,30.63
2018-12-06T21:21:39.042Z,28.80
2018-12-06T21:24:07.718Z,30.37
2018-12-06T21:26:36.296Z,29.03
2018-12-06T21:29:04.984Z,29.73
2018-12-06T21:31:33.756Z,28.53
2018-12-06T21:34:02.476Z,29.77
2018-12-06T21:36:30.990Z,30.37
2018-12-06T21:38:59.685Z,30.50
2018-12-06T21:41:28.367Z,30.30
2018-12-06T21:43:56.972Z,31.87
2018-12-06T21:46:25.495Z,30.03
2018-12-06T21:48:54.025Z,30.97
2018-12-06T21:51:22.599Z,30.90
2018-12-06T21:53:51.125Z,30.40
2018-12-06T21:56:19.797Z,28.07
2018-12-06T21:58:48.313Z,29.10
2018-12-06T22:01:16.894Z,29.20
2018-12-06T22:03:45.474Z,28.63
2018-12-06T22:06:14.028Z,27.10
2018-12-06T22:08:42.942Z,27.53
2018-12-06T22:11:11.521Z,26.13
2018-12-06T22:13:40.066Z,26.30
2018-12-06T22:16:08.602Z,25.77
2018-12-06T22:18:37.170Z,26.07
2018-12-06T22:21:05.823Z,25.53
2018-12-06T22:23:34.400Z,24.50
2018-12-06T22:26:02.976Z,25.07
2018-12-06T22:28:34.224Z,25.23
2018-12-06T22:31:02.239Z,26.33
2018-12-06T22:33:30.777Z,24.10
2018-12-06T22:35:59.323Z,22.63
2018-12-06T22:38:34.073Z,23.73
2018-12-06T22:40:58.587Z,23.70
2018-12-06T22:43:27.234Z,22.30
2018-12-06T22:46:00.494Z,22.20
2018-12-06T22:48:29.314Z,21.53
2018-12-06T22:50:58.084Z,19.77
2018-12-06T22:53:27.024Z,18.87
2018-12-06T22:55:55.534Z,19.87
2018-12-06T22:58:24.060Z,17.53
2018-12-06T23:00:55.772Z,18.17
2018-12-06T23:03:24.658Z,16.50
2018-12-06T23:05:54.360Z,15.70
2018-12-06T23:08:23.072Z,15.77
2018-12-06T23:10:51.876Z,16.13
2018-12-06T23:13:20.449Z,16.33
2018-12-06T23:15:49.293Z,14.73
2018-12-06T23:18:17.963Z,14.77
2018-12-06T23:20:46.550Z,12.90
2018-12-06T23:23:15.358Z,11.30
2018-12-06T23:25:43.895Z,11.57
2018-12-06T23:28:13.159Z,11.00
2018-12-06T23:30:41.800Z,9.47
2018-12-06T23:33:10.387Z,10.20
2018-12-06T23:35:38.929Z,9.10
2018-12-06T23:38:07.433Z,9.80
2018-12-06T23:40:36.147Z,9.93
2018-12-06T23:43:04.719Z,10.37
2018-12-06T23:45:33.241Z,10.63
2018-12-06T23:48:01.801Z,9.00
2018-12-06T23:50:30.376Z,9.40
2018-12-06T23:52:59.163Z,8.70
2018-12-06T23:55:29.016Z,7.87
2018-12-06T23:57:57.679Z,8.10
